createdAt,value
2019-04-04T00:00:39.552Z,10.30
2019-04-04T00:03:09.790Z,10.85
2019-04-04T00:05:40.353Z,9.83
2019-04-04T00:08:10.739Z,9.95
2019-04-04T00:10:41.000Z,10.45
2019-04-04T00:13:11.680Z,11.18
2019-04-04T00:15:45.366Z,9.98
2019-04-04T00:18:17.671Z,10.25
2019-04-04T00:20:49.141Z,10.28
2019-04-04T00:23:20.674Z,9.85
2019-04-04T00:25:52.866Z,11.10
2019-04-04T00:28:23.664Z,9.70
2019-04-04T00:30:55.818Z,10.58
2019-04-04T00:33:26.370Z,10.98
2019-04-04T00:36:06.379Z,10.75
2019-04-04T00:38:44.184Z,9.38
2019-04-04T00:41:16.374Z,10.53
2019-04-04T00:43:51.865Z,9.63
2019-04-04T00:46:26.484Z,9.68
2019-04-04T00:48:57.079Z,10.35
2019-04-04T00:51:34.008Z,10.93
2019-04-04T00:54:04.991Z,9.85
2019-04-04T00:56:41.222Z,10.63
2019-04-04T00:59:11.837Z,10.70
2019-04-04T01:01:44.024Z,9.63
2019-04-04T01:04:14.802Z,7.33
2019-04-04T01:06:50.842Z,10.25
2019-04-04T01:09:21.075Z,11.25
2019-04-04T01:12:05.355Z,10.28
2019-04-04T01:14:37.168Z,9.63
2019-04-04T01:17:19.450Z,9.18
2019-04-04T01:19:49.789Z,9.73
2019-04-04T01:22:20.438Z,11.85
2019-04-04T01:24:50.749Z,10.18
2019-04-04T01:27:20.988Z,9.73
2019-04-04T01:29:53.884Z,8.43
2019-04-04T01:32:24.547Z,9.20
2019-04-04T01:34:55.271Z,8.20
2019-04-04T01:37:27.192Z,9.38
2019-04-04T01:40:12.133Z,9.23
2019-04-04T01:42:42.575Z,10.72
2019-04-04T01:45:19.865Z,9.93
2019-04-04T01:47:51.674Z,10.32
2019-04-04T01:50:24.882Z,9.97
2019-04-04T01:52:59.983Z,10.45
2019-04-04T01:57:59.876Z,10.23
2019-04-04T02:00:30.522Z,10.05
2019-04-04T02:03:16.512Z,10.60
2019-04-04T02:05:46.981Z,10.30
2019-04-04T02:08:17.542Z,10.10
2019-04-04T02:10:47.844Z,9.40
2019-04-04T02:13:18.404Z,9.35
2019-04-04T02:15:48.700Z,9.00
2019-04-04T02:18:19.290Z,9.85
2019-04-04T02:20:58.788Z,10.35
2019-04-04T02:23:38.292Z,10.75
2019-04-04T02:26:08.682Z,9.98
2019-04-04T02:28:40.011Z,7.62
2019-04-04T02:31:11.956Z,9.20
2019-04-04T02:33:42.590Z,9.90
2019-04-04T02:36:16.397Z,10.58
2019-04-04T02:39:07.846Z,9.43
2019-04-04T02:41:38.251Z,9.70
2019-04-04T02:44:09.329Z,8.95
2019-04-04T02:46:44.524Z,8.30
2019-04-04T02:49:12.438Z,10.30
2019-04-04T02:51:42.719Z,7.37
2019-04-04T02:54:13.021Z,9.95
2019-04-04T02:56:43.225Z,8.23
2019-04-04T02:59:13.812Z,10.13
2019-04-04T03:01:44.255Z,9.45
2019-04-04T03:04:14.832Z,9.65
2019-04-04T03:06:45.113Z,10.20
2019-04-04T03:09:15.325Z,9.43
2019-04-04T03:11:45.605Z,10.45
2019-04-04T03:14:16.235Z,9.73
2019-04-04T03:16:46.528Z,10.60
2019-04-04T03:19:17.100Z,10.70
2019-04-04T03:21:48.103Z,7.55
2019-04-04T03:24:19.330Z,8.80
2019-04-04T03:26:52.220Z,6.90
2019-04-04T03:29:23.132Z,11.05
2019-04-04T03:31:53.407Z,8.98
2019-04-04T03:34:25.220Z,10.25
2019-04-04T03:36:55.942Z,10.45
2019-04-04T03:39:27.762Z,10.45
2019-04-04T03:41:59.582Z,10.98
2019-04-04T03:44:29.816Z,10.18
2019-04-04T03:47:00.229Z,10.40
2019-04-04T03:49:30.448Z,11.28
2019-04-04T03:52:00.682Z,10.70
2019-04-04T03:54:30.918Z,10.48
2019-04-04T03:57:01.744Z,9.60
2019-04-04T03:59:33.086Z,9.25
2019-04-04T04:02:03.633Z,7.85
2019-04-04T04:04:34.182Z,10.35
2019-04-04T04:07:05.036Z,10.50
2019-04-04T04:09:35.680Z,10.18
2019-04-04T04:12:10.207Z,10.45
2019-04-04T04:14:38.311Z,11.48
2019-04-04T04:17:09.226Z,11.03
2019-04-04T04:19:40.801Z,10.25
2019-04-04T04:22:12.923Z,9.63
2019-04-04T04:24:43.001Z,9.98
2019-04-04T04:27:15.457Z,9.20
2019-04-04T04:29:45.576Z,9.65
2019-04-04T04:32:15.787Z,9.13
2019-04-04T04:34:46.419Z,9.85
2019-04-04T04:37:19.865Z,9.90
2019-04-04T04:39:48.628Z,9.48
2019-04-04T04:42:21.102Z,9.85
2019-04-04T04:44:51.186Z,9.60
2019-04-04T04:47:23.847Z,10.72
2019-04-04T04:49:55.455Z,9.70
2019-04-04T04:52:25.918Z,9.90
2019-04-04T04:54:56.505Z,10.30
2019-04-04T04:57:29.731Z,9.43
2019-04-04T05:00:01.538Z,9.48
2019-04-04T05:02:32.124Z,8.25
2019-04-04T05:05:02.383Z,10.10
2019-04-04T05:07:33.455Z,7.70
2019-04-04T05:10:06.301Z,10.68
2019-04-04T05:12:37.065Z,9.58
2019-04-04T05:15:09.121Z,8.95
2019-04-04T05:17:39.992Z,9.98
2019-04-04T05:20:13.473Z,10.08
2019-04-04T05:22:45.197Z,8.98
2019-04-04T05:25:15.831Z,10.48
2019-04-04T05:27:46.585Z,9.70
2019-04-04T05:30:20.194Z,9.60
2019-04-04T05:32:50.007Z,9.55
2019-04-04T05:35:21.615Z,8.15
2019-04-04T05:37:51.891Z,8.95
2019-04-04T05:40:23.505Z,10.60
2019-04-04T05:42:54.986Z,8.40
2019-04-04T05:45:25.699Z,9.93
2019-04-04T05:47:58.293Z,17.50
2019-04-04T05:50:28.308Z,9.55
2019-04-04T05:53:02.131Z,10.70
2019-04-04T05:55:32.450Z,10.58
2019-04-04T05:58:02.676Z,10.80
2019-04-04T06:00:33.283Z,14.00
2019-04-04T06:03:03.558Z,9.03
2019-04-04T06:05:34.160Z,9.95
2019-04-04T06:08:07.854Z,10.72
2019-04-04T06:10:37.162Z,10.25
2019-04-04T06:13:07.812Z,10.88
2019-04-04T06:15:38.487Z,11.55
2019-04-04T06:18:10.927Z,11.33
2019-04-04T06:20:40.724Z,11.25
2019-04-04T06:23:10.961Z,10.95
2019-04-04T06:25:41.359Z,10.68
2019-04-04T06:28:12.592Z,10.50
2019-04-04T06:30:43.921Z,11.50
2019-04-04T06:33:14.494Z,10.10
2019-04-04T06:35:47.141Z,10.68
2019-04-04T06:38:17.103Z,11.33
2019-04-04T06:40:49.255Z,10.60
2019-04-04T06:43:19.919Z,11.73
2019-04-04T06:45:50.580Z,11.90
2019-04-04T06:48:22.228Z,11.75
2019-04-04T06:50:52.535Z,11.53
2019-04-04T06:53:23.119Z,11.38
2019-04-04T06:55:54.637Z,11.90
2019-04-04T06:58:25.280Z,10.85
2019-04-04T07:00:55.943Z,11.20
2019-04-04T07:03:27.916Z,11.28
2019-04-04T07:05:58.857Z,13.35
2019-04-04T07:08:29.502Z,11.63
2019-04-04T07:11:02.746Z,12.85
2019-04-04T07:13:42.291Z,12.03
2019-04-04T07:16:08.115Z,12.43
2019-04-04T07:18:40.982Z,10.90
2019-04-04T07:21:12.285Z,12.10
2019-04-04T07:23:42.471Z,12.30
2019-04-04T07:26:14.853Z,11.70
2019-04-04T07:28:45.055Z,11.68
2019-04-04T07:31:16.196Z,11.53
2019-04-04T07:33:46.867Z,12.45
2019-04-04T07:36:20.203Z,11.75
2019-04-04T07:38:50.975Z,12.20
2019-04-04T07:41:21.307Z,12.58
2019-04-04T07:43:52.353Z,11.65
2019-04-04T07:46:22.865Z,12.33
2019-04-04T07:48:53.126Z,11.65
2019-04-04T07:51:23.344Z,12.25
2019-04-04T07:53:54.000Z,12.98
2019-04-04T07:56:24.316Z,12.47
2019-04-04T07:58:54.576Z,12.50
2019-04-04T08:01:24.813Z,11.55
2019-04-04T08:03:55.058Z,13.60
2019-04-04T08:06:25.297Z,11.90
2019-04-04T08:08:55.553Z,13.58
2019-04-04T08:11:25.832Z,12.93
2019-04-04T08:13:56.084Z,14.70
2019-04-04T08:16:26.724Z,12.68
2019-04-04T08:18:57.089Z,12.85
2019-04-04T08:21:27.729Z,12.75
2019-04-04T08:23:58.394Z,12.33
2019-04-04T08:26:29.087Z,12.68
2019-04-04T08:29:03.818Z,12.63
2019-04-04T08:31:34.116Z,12.80
2019-04-04T08:34:05.017Z,12.13
2019-04-04T08:36:35.941Z,12.50
2019-04-04T08:39:08.953Z,13.00
2019-04-04T08:41:39.196Z,13.58
2019-04-04T08:44:09.837Z,14.20
2019-04-04T08:46:40.158Z,17.20
2019-04-04T08:49:10.732Z,12.70
2019-04-04T08:51:41.400Z,14.30
2019-04-04T08:54:11.763Z,13.15
2019-04-04T08:56:41.952Z,13.40
2019-04-04T08:59:12.186Z,11.80
2019-04-04T09:01:42.505Z,13.20
2019-04-04T09:04:13.079Z,14.50
2019-04-04T09:06:44.717Z,12.98
2019-04-04T09:09:15.364Z,13.30
2019-04-04T09:11:47.851Z,12.68
2019-04-04T09:14:18.136Z,13.20
2019-04-04T09:16:48.364Z,13.50
2019-04-04T09:19:21.080Z,13.08
2019-04-04T09:21:51.547Z,13.50
2019-04-04T09:24:21.917Z,13.48
2019-04-04T09:26:53.226Z,13.53
2019-04-04T09:29:23.793Z,13.18
2019-04-04T09:31:54.111Z,12.80
2019-04-04T09:34:24.691Z,13.70
2019-04-04T09:36:55.008Z,12.88
2019-04-04T09:39:25.606Z,12.23
2019-04-04T09:41:55.872Z,11.40
2019-04-04T09:44:27.225Z,13.65
2019-04-04T09:47:05.220Z,13.45
2019-04-04T09:49:29.800Z,13.32
2019-04-04T09:52:01.712Z,14.33
2019-04-04T09:54:32.311Z,11.95
2019-04-04T09:57:02.985Z,13.95
2019-04-04T09:59:33.269Z,13.32
2019-04-04T10:02:04.042Z,13.00
2019-04-04T10:04:36.564Z,12.65
2019-04-04T10:07:06.884Z,12.80
2019-04-04T10:09:37.154Z,13.90
2019-04-04T10:12:07.369Z,13.10
2019-04-04T10:14:38.055Z,13.43
2019-04-04T10:17:08.970Z,12.20
2019-04-04T10:19:39.932Z,13.10
2019-04-04T10:22:10.361Z,13.35
2019-04-04T10:24:40.962Z,13.28
2019-04-04T10:27:11.252Z,13.58
2019-04-04T10:29:41.477Z,11.85
2019-04-04T10:32:13.069Z,13.03
2019-04-04T10:34:44.370Z,11.38
2019-04-04T10:37:14.969Z,10.65
2019-04-04T10:39:45.608Z,13.93
2019-04-04T10:42:18.553Z,13.60
2019-04-04T10:44:49.292Z,13.32
2019-04-04T10:47:19.966Z,13.48
2019-04-04T10:49:50.284Z,14.53
2019-04-04T10:52:20.524Z,13.62
2019-04-04T10:54:51.967Z,13.40
2019-04-04T10:57:22.211Z,13.48
2019-04-04T10:59:54.589Z,9.73
2019-04-04T11:02:25.708Z,13.03
2019-04-04T11:04:56.769Z,10.72
2019-04-04T11:07:28.142Z,13.75
2019-04-04T11:09:58.566Z,12.78
2019-04-04T11:12:34.144Z,13.03
2019-04-04T11:17:33.938Z,13.05
2019-04-04T11:20:06.657Z,13.45
2019-04-04T11:22:37.245Z,12.90
2019-04-04T11:25:08.427Z,10.90
2019-04-04T11:27:39.135Z,12.93
2019-04-04T11:30:11.905Z,13.35
2019-04-04T11:32:43.081Z,12.82
2019-04-04T11:35:13.570Z,12.73
2019-04-04T11:37:45.476Z,13.90
2019-04-04T11:40:16.213Z,13.10
2019-04-04T11:42:46.498Z,12.75
2019-04-04T11:45:17.025Z,13.35
2019-04-04T11:47:47.454Z,13.20
2019-04-04T11:50:17.746Z,12.75
2019-04-04T11:52:48.318Z,12.37
2019-04-04T11:55:19.008Z,12.63
2019-04-04T11:57:49.311Z,12.95
2019-04-04T12:00:21.235Z,13.32
2019-04-04T12:02:51.609Z,13.83
2019-04-04T12:05:22.710Z,12.88
2019-04-04T12:07:52.956Z,13.80
2019-04-04T12:10:23.180Z,10.70
2019-04-04T12:12:53.407Z,10.15
2019-04-04T12:15:24.025Z,11.22
2019-04-04T12:17:54.762Z,12.78
2019-04-04T12:20:26.446Z,12.90
2019-04-04T12:22:57.017Z,13.45
2019-04-04T12:25:27.731Z,12.70
2019-04-04T12:28:01.436Z,9.85
2019-04-04T12:30:31.740Z,13.58
2019-04-04T12:33:01.993Z,12.80
2019-04-04T12:35:32.631Z,12.45
2019-04-04T12:38:03.003Z,12.80
2019-04-04T12:40:33.684Z,13.78
2019-04-04T12:43:04.410Z,12.70
2019-04-04T12:45:37.749Z,13.85
2019-04-04T12:48:09.220Z,11.20
2019-04-04T12:50:40.482Z,13.50
2019-04-04T12:53:11.113Z,11.22
2019-04-04T12:55:41.765Z,13.30
2019-04-04T12:58:12.117Z,12.00
2019-04-04T13:00:43.209Z,13.68
2019-04-04T13:03:13.869Z,13.05
2019-04-04T13:05:44.549Z,13.85
2019-04-04T13:08:16.854Z,13.00
2019-04-04T13:10:47.663Z,13.48
2019-04-04T13:13:18.308Z,12.37
2019-04-04T13:15:49.012Z,12.65
2019-04-04T13:18:19.391Z,12.82
2019-04-04T13:20:51.132Z,12.33
2019-04-04T13:23:21.768Z,12.75
2019-04-04T13:25:52.513Z,14.15
2019-04-04T13:28:24.372Z,12.58
2019-04-04T13:30:54.630Z,12.43
2019-04-04T13:33:24.924Z,13.28
2019-04-04T13:35:55.171Z,13.10
2019-04-04T13:38:25.882Z,11.35
2019-04-04T13:40:59.373Z,12.60
2019-04-04T13:43:29.749Z,12.73
2019-04-04T13:46:00.346Z,13.10
2019-04-04T13:48:31.049Z,13.85
2019-04-04T13:51:01.861Z,13.38
2019-04-04T13:53:34.761Z,13.80
2019-04-04T13:56:07.397Z,14.00
2019-04-04T13:58:39.551Z,13.25
2019-04-04T14:01:10.188Z,13.08
2019-04-04T14:03:40.554Z,12.30
2019-04-04T14:06:11.512Z,14.03
2019-04-04T14:08:42.231Z,14.10
2019-04-04T14:11:12.884Z,14.05
2019-04-04T14:13:44.322Z,14.65
2019-04-04T14:16:17.915Z,13.13
2019-04-04T14:18:48.824Z,13.53
2019-04-04T14:21:19.847Z,13.48
2019-04-04T14:23:52.980Z,13.43
2019-04-04T14:26:23.003Z,13.95
2019-04-04T14:28:53.545Z,15.03
2019-04-04T14:31:24.343Z,13.18
2019-04-04T14:33:55.049Z,14.55
2019-04-04T14:36:26.107Z,14.35
2019-04-04T14:38:57.723Z,13.40
2019-04-04T14:41:27.977Z,13.22
2019-04-04T14:44:00.696Z,12.45
2019-04-04T14:46:31.540Z,13.68
2019-04-04T14:49:02.843Z,13.28
2019-04-04T14:51:33.717Z,11.93
2019-04-04T14:54:04.747Z,12.50
2019-04-04T14:56:36.105Z,14.13
2019-04-04T14:59:06.962Z,14.05
2019-04-04T15:01:39.271Z,13.35
2019-04-04T15:04:10.731Z,13.62
2019-04-04T15:06:41.010Z,13.35
2019-04-04T15:09:11.566Z,14.15
2019-04-04T15:11:41.774Z,13.80
2019-04-04T15:14:12.391Z,14.15
2019-04-04T15:16:43.055Z,13.32
2019-04-04T15:19:13.349Z,13.32
2019-04-04T15:21:43.597Z,14.10
2019-04-04T15:24:14.162Z,13.95
2019-04-04T15:26:44.475Z,13.32
2019-04-04T15:29:16.375Z,13.75
2019-04-04T15:31:46.704Z,13.30
2019-04-04T15:34:16.923Z,14.03
2019-04-04T15:36:48.500Z,14.10
2019-04-04T15:39:19.029Z,14.50
2019-04-04T15:41:49.714Z,12.75
2019-04-04T15:44:20.018Z,13.18
2019-04-04T15:46:50.231Z,12.68
2019-04-04T15:49:20.703Z,13.08
2019-04-04T15:51:50.987Z,13.45
2019-04-04T15:54:21.192Z,14.07
2019-04-04T15:56:51.865Z,13.58
2019-04-04T15:59:22.243Z,12.13
2019-04-04T16:01:52.526Z,13.25
2019-04-04T16:04:22.750Z,13.38
2019-04-04T16:06:52.989Z,13.55
2019-04-04T16:09:23.225Z,12.28
2019-04-04T16:11:53.820Z,14.25
2019-04-04T16:14:24.535Z,13.48
2019-04-04T16:16:54.846Z,13.80
2019-04-04T16:19:25.096Z,13.68
2019-04-04T16:21:56.533Z,14.60
2019-04-04T16:24:27.221Z,12.45
2019-04-04T16:26:58.640Z,13.95
2019-04-04T16:29:29.404Z,14.25
2019-04-04T16:32:00.164Z,14.15
2019-04-04T16:34:30.974Z,14.05
2019-04-04T16:37:01.259Z,14.20
2019-04-04T16:39:31.577Z,14.68
2019-04-04T16:42:02.770Z,14.50
2019-04-04T16:44:33.616Z,14.63
2019-04-04T16:47:04.106Z,14.38
2019-04-04T16:49:38.321Z,14.47
2019-04-04T16:52:09.125Z,13.08
2019-04-04T16:54:39.543Z,13.13
2019-04-04T16:57:09.861Z,13.80
2019-04-04T16:59:40.164Z,14.58
2019-04-04T17:02:10.767Z,15.50
2019-04-04T17:04:41.184Z,15.50
2019-04-04T17:07:13.022Z,15.98
2019-04-04T17:09:43.318Z,15.45
2019-04-04T17:12:15.201Z,14.93
2019-04-04T17:14:46.471Z,14.78
2019-04-04T17:17:17.184Z,14.53
2019-04-04T17:19:47.935Z,14.93
2019-04-04T17:22:18.422Z,15.23
2019-04-04T17:24:50.496Z,15.90
2019-04-04T17:27:20.934Z,14.93
2019-04-04T17:29:52.251Z,15.32
2019-04-04T17:32:23.645Z,15.55
2019-04-04T17:34:54.837Z,15.05
2019-04-04T17:37:25.734Z,15.23
2019-04-04T17:39:56.872Z,14.73
2019-04-04T17:42:31.432Z,15.08
2019-04-04T17:45:02.247Z,14.35
2019-04-04T17:47:32.905Z,14.78
2019-04-04T17:50:04.316Z,12.70
2019-04-04T17:52:35.323Z,13.55
2019-04-04T17:55:08.084Z,13.88
2019-04-04T17:57:39.875Z,12.63
2019-04-04T18:00:14.069Z,14.07
2019-04-04T18:02:44.754Z,13.35
2019-04-04T18:05:15.934Z,13.40
2019-04-04T18:07:46.169Z,14.93
2019-04-04T18:10:18.550Z,15.40
2019-04-04T18:12:49.377Z,15.45
2019-04-04T18:15:20.080Z,15.18
2019-04-04T18:17:51.412Z,12.85
2019-04-04T18:20:22.481Z,11.95
2019-04-04T18:22:52.802Z,12.00
2019-04-04T18:25:24.459Z,13.32
2019-04-04T18:27:54.826Z,12.43
2019-04-04T18:30:25.410Z,11.45
2019-04-04T18:32:57.318Z,12.90
2019-04-04T18:35:28.802Z,10.43
2019-04-04T18:37:59.857Z,12.58
2019-04-04T18:40:30.337Z,13.55
2019-04-04T18:43:00.907Z,13.10
2019-04-04T18:45:31.242Z,12.18
2019-04-04T18:48:01.460Z,12.23
2019-04-04T18:50:32.102Z,11.60
2019-04-04T18:53:02.794Z,11.65
2019-04-04T18:55:33.423Z,9.10
2019-04-04T18:58:04.121Z,11.75
2019-04-04T19:00:34.500Z,10.88
2019-04-04T19:03:06.595Z,11.70
2019-04-04T19:05:37.283Z,12.20
2019-04-04T19:08:08.530Z,11.15
2019-04-04T19:10:39.237Z,11.97
2019-04-04T19:13:09.506Z,11.57
2019-04-04T19:15:40.170Z,13.08
2019-04-04T19:18:13.147Z,11.38
2019-04-04T19:20:43.396Z,10.48
2019-04-04T19:23:16.020Z,10.43
2019-04-04T19:25:46.459Z,12.20
2019-04-04T19:28:17.588Z,11.75
2019-04-04T19:30:48.138Z,11.57
2019-04-04T19:33:18.493Z,12.88
2019-04-04T19:35:50.098Z,12.50
2019-04-04T19:38:20.864Z,12.88
2019-04-04T19:40:53.257Z,11.03
2019-04-04T19:43:24.484Z,13.03
2019-04-04T19:45:55.616Z,14.15
2019-04-04T19:48:26.467Z,11.73
2019-04-04T19:50:58.798Z,13.45
2019-04-04T19:53:29.588Z,12.80
2019-04-04T19:55:59.797Z,12.90
2019-04-04T19:58:30.139Z,13.25
2019-04-04T20:01:01.098Z,14.03
2019-04-04T20:03:31.483Z,13.43
2019-04-04T20:06:02.149Z,12.37
2019-04-04T20:08:32.439Z,12.90
2019-04-04T20:11:02.765Z,13.68
2019-04-04T20:13:37.574Z,12.53
2019-04-04T20:16:12.437Z,13.25
2019-04-04T20:18:43.574Z,12.30
2019-04-04T20:21:15.348Z,11.57
2019-04-04T20:23:46.050Z,13.98
2019-04-04T20:26:16.417Z,12.82
2019-04-04T20:28:46.630Z,12.80
2019-04-04T20:31:16.880Z,13.10
2019-04-04T20:33:47.121Z,13.18
2019-04-04T20:36:17.699Z,12.73
2019-04-04T20:38:49.598Z,13.60
2019-04-04T20:41:20.197Z,12.13
2019-04-04T20:43:50.499Z,12.07
2019-04-04T20:46:21.074Z,12.37
2019-04-04T20:48:52.931Z,11.10
2019-04-04T20:51:24.311Z,12.45
2019-04-04T20:53:56.424Z,12.55
2019-04-04T20:56:26.774Z,10.95
2019-04-04T20:58:57.025Z,12.35
2019-04-04T21:01:28.076Z,12.85
2019-04-04T21:03:58.640Z,11.80
2019-04-04T21:06:29.291Z,13.10
2019-04-04T21:08:59.995Z,13.83
2019-04-04T21:11:30.282Z,13.28
2019-04-04T21:14:00.483Z,11.78
2019-04-04T21:16:30.728Z,12.20
2019-04-04T21:19:01.201Z,12.03
2019-04-04T21:21:31.484Z,13.88
2019-04-04T21:24:02.068Z,14.70
2019-04-04T21:26:32.357Z,24.70
2019-04-04T21:29:02.705Z,26.97
2019-04-04T21:31:32.904Z,30.40
2019-04-04T21:34:03.133Z,28.23
2019-04-04T21:36:33.338Z,27.87
2019-04-04T21:39:04.712Z,25.65
2019-04-04T21:41:35.015Z,22.05
2019-04-04T21:44:09.169Z,19.55
2019-04-04T21:46:37.172Z,16.25
2019-04-04T21:49:07.568Z,14.07
2019-04-04T21:51:38.206Z,12.55
2019-04-04T21:54:08.851Z,12.58
2019-04-04T21:56:39.160Z,11.85
2019-04-04T21:59:09.614Z,12.47
2019-04-04T22:01:40.666Z,11.57
2019-04-04T22:04:11.313Z,11.22
2019-04-04T22:06:41.950Z,12.05
2019-04-04T22:09:27.183Z,12.35
2019-04-04T22:11:57.849Z,11.85
2019-04-04T22:14:28.159Z,11.18
2019-04-04T22:16:58.380Z,11.53
2019-04-04T22:19:28.618Z,12.23
2019-04-04T22:21:59.172Z,12.25
2019-04-04T22:24:29.828Z,11.85
2019-04-04T22:27:00.110Z,12.15
2019-04-04T22:29:30.685Z,11.28
2019-04-04T22:32:01.385Z,12.47
2019-04-04T22:34:31.725Z,11.45
2019-04-04T22:37:01.940Z,11.25
2019-04-04T22:39:32.632Z,11.78
2019-04-04T22:42:05.809Z,12.65
2019-04-04T22:44:36.480Z,12.05
2019-04-04T22:47:06.774Z,11.85
2019-04-04T22:49:36.995Z,11.65
2019-04-04T22:52:07.230Z,12.30
2019-04-04T22:54:37.803Z,11.53
2019-04-04T22:57:08.470Z,11.85
2019-04-04T22:59:39.099Z,11.25
2019-04-04T23:02:09.406Z,11.90
2019-04-04T23:04:39.959Z,10.05
2019-04-04T23:07:10.245Z,12.70
2019-04-04T23:09:40.491Z,11.90
2019-04-04T23:12:11.074Z,12.28
2019-04-04T23:14:48.107Z,11.80
2019-04-04T23:17:13.720Z,11.35
2019-04-04T23:19:43.953Z,10.90
2019-04-04T23:22:14.205Z,11.73
2019-04-04T23:24:44.816Z,10.75
2019-04-04T23:27:15.457Z,10.43
2019-04-04T23:29:45.756Z,10.60
2019-04-04T23:32:16.345Z,10.38
2019-04-04T23:34:46.694Z,11.05
2019-04-04T23:37:16.905Z,11.22
2019-04-04T23:39:47.117Z,11.15
2019-04-04T23:42:17.699Z,11.18
2019-04-04T23:44:59.875Z,11.57
2019-04-04T23:47:20.262Z,11.10
2019-04-04T23:49:50.593Z,10.13
2019-04-04T23:52:21.162Z,11.68
2019-04-04T23:54:51.445Z,11.05
2019-04-04T23:57:22.037Z,10.88
2019-04-04T23:59:52.706Z,11.18
